createdAt,value
2023-04-02T00:01:06.352Z,7.93
2023-04-02T00:03:44.759Z,7.47
2023-04-02T00:06:30.090Z,7.20
2023-04-02T00:08:59.332Z,7.38
2023-04-02T00:11:30.414Z,8.27
2023-04-02T00:14:00.404Z,8.13
2023-04-02T00:16:27.252Z,9.05
2023-04-02T00:18:55.434Z,8.40
2023-04-02T00:21:26.549Z,8.85
2023-04-02T00:23:56.932Z,8.77
2023-04-02T00:26:24.556Z,9.68
2023-04-02T00:28:51.231Z,9.27
2023-04-02T00:31:19.088Z,9.00
2023-04-02T00:33:46.306Z,9.07
2023-04-02T00:36:12.740Z,9.18
2023-04-02T00:38:43.579Z,9.60
2023-04-02T00:41:13.812Z,8.35
2023-04-02T00:43:44.496Z,5.03
2023-04-02T00:46:14.687Z,3.47
2023-04-02T00:48:59.925Z,2.88
2023-04-02T00:51:28.934Z,2.67
2023-04-02T00:53:57.689Z,2.22
2023-04-02T00:56:42.148Z,2.10
2023-04-02T00:59:17.527Z,2.17
2023-04-02T01:01:44.436Z,2.35
2023-04-02T01:04:28.306Z,2.22
2023-04-02T01:06:54.682Z,2.10
2023-04-02T01:09:39.861Z,2.50
2023-04-02T01:12:15.394Z,2.30
2023-04-02T01:14:59.653Z,2.60
2023-04-02T01:17:35.518Z,2.67
2023-04-02T01:20:14.501Z,3.10
2023-04-02T01:22:53.338Z,2.90
2023-04-02T01:25:24.834Z,2.63
2023-04-02T01:30:18.391Z,3.03
2023-04-02T01:32:45.192Z,3.05
2023-04-02T01:35:11.726Z,2.97
2023-04-02T01:37:44.891Z,3.00
2023-04-02T01:40:34.412Z,2.92
2023-04-02T01:43:03.780Z,2.53
2023-04-02T01:45:30.324Z,2.90
2023-04-02T01:47:56.696Z,2.75
2023-04-02T01:50:26.874Z,2.85
2023-04-02T01:52:55.457Z,2.90
2023-04-02T01:55:29.570Z,3.13
2023-04-02T01:57:56.691Z,2.72
2023-04-02T02:00:23.133Z,2.95
2023-04-02T02:02:50.247Z,2.65
2023-04-02T02:05:18.101Z,2.55
2023-04-02T02:07:44.567Z,2.85
2023-04-02T02:10:14.099Z,2.80
2023-04-02T02:12:41.591Z,2.85
2023-04-02T02:15:14.347Z,3.05
2023-04-02T02:17:40.647Z,2.80
2023-04-02T02:20:12.357Z,2.58
2023-04-02T02:22:45.668Z,2.70
2023-04-02T02:25:14.862Z,2.80
2023-04-02T02:27:44.151Z,2.70
2023-04-02T02:30:19.574Z,2.85
2023-04-02T02:32:49.793Z,2.42
2023-04-02T02:35:19.184Z,3.00
2023-04-02T02:37:47.346Z,2.63
2023-04-02T02:40:18.327Z,2.88
2023-04-02T02:42:49.082Z,2.88
2023-04-02T02:45:21.922Z,2.60
2023-04-02T02:47:49.590Z,2.42
2023-04-02T02:50:23.253Z,2.72
2023-04-02T02:52:57.373Z,2.50
2023-04-02T02:55:32.565Z,2.83
2023-04-02T02:58:02.882Z,3.08
2023-04-02T03:00:29.131Z,2.90
2023-04-02T03:02:57.031Z,2.75
2023-04-02T03:05:25.991Z,3.08
2023-04-02T03:07:53.649Z,3.40
2023-04-02T03:10:23.567Z,3.25
2023-04-02T03:13:12.278Z,3.35
2023-04-02T03:15:42.186Z,3.28
2023-04-02T03:18:32.794Z,3.20
2023-04-02T03:21:02.412Z,3.38
2023-04-02T03:23:40.548Z,2.80
2023-04-02T03:26:10.901Z,3.22
2023-04-02T03:28:41.129Z,3.10
2023-04-02T03:31:16.578Z,3.35
2023-04-02T03:33:47.805Z,3.45
2023-04-02T03:36:24.203Z,3.53
2023-04-02T03:38:52.037Z,3.35
2023-04-02T03:41:21.277Z,4.00
2023-04-02T03:43:49.644Z,3.85
2023-04-02T03:46:18.616Z,3.97
2023-04-02T03:48:48.007Z,3.63
2023-04-02T03:51:17.792Z,3.70
2023-04-02T03:53:44.770Z,3.85
2023-04-02T03:56:19.657Z,3.70
2023-04-02T03:58:47.621Z,3.85
2023-04-02T04:01:34.386Z,3.33
2023-04-02T04:04:13.335Z,3.60
2023-04-02T04:06:42.068Z,3.45
2023-04-02T04:09:10.501Z,3.65
2023-04-02T04:11:39.143Z,4.65
2023-04-02T04:14:05.486Z,4.50
2023-04-02T04:16:43.953Z,5.68
2023-04-02T04:19:32.413Z,4.88
2023-04-02T04:22:31.665Z,4.85
2023-04-02T04:24:58.862Z,4.85
2023-04-02T04:27:36.227Z,4.57
2023-04-02T04:30:24.345Z,4.70
2023-04-02T04:32:57.952Z,4.90
2023-04-02T04:35:29.347Z,4.90
2023-04-02T04:37:58.768Z,4.60
2023-04-02T04:40:36.107Z,4.90
2023-04-02T04:43:06.034Z,4.95
2023-04-02T04:45:41.934Z,4.82
2023-04-02T04:48:30.546Z,4.60
2023-04-02T04:51:01.788Z,4.68
2023-04-02T04:53:28.732Z,4.40
2023-04-02T04:55:59.687Z,4.47
2023-04-02T04:58:41.720Z,4.57
2023-04-02T05:01:11.311Z,4.90
2023-04-02T05:03:50.898Z,4.70
2023-04-02T05:06:19.895Z,4.82
2023-04-02T05:08:48.995Z,4.80
2023-04-02T05:11:20.907Z,4.82
2023-04-02T05:14:05.653Z,4.78
2023-04-02T05:16:50.724Z,4.47
2023-04-02T05:19:21.048Z,4.50
2023-04-02T05:21:49.507Z,4.97
2023-04-02T05:24:25.040Z,4.63
2023-04-02T05:26:51.848Z,4.72
2023-04-02T05:29:21.004Z,4.43
2023-04-02T05:31:53.370Z,4.30
2023-04-02T05:34:25.525Z,4.72
2023-04-02T05:36:51.822Z,4.95
2023-04-02T05:39:21.625Z,5.05
2023-04-02T05:41:48.118Z,4.88
2023-04-02T05:44:28.701Z,5.05
2023-04-02T05:46:57.371Z,5.10
2023-04-02T05:49:31.581Z,5.07
2023-04-02T05:52:00.799Z,5.45
2023-04-02T05:54:31.038Z,5.13
2023-04-02T05:57:01.033Z,5.57
2023-04-02T05:59:29.907Z,5.40
2023-04-02T06:02:17.294Z,5.93
2023-04-02T06:04:47.193Z,11.20
2023-04-02T06:07:19.663Z,5.70
2023-04-02T06:09:48.538Z,5.38
2023-04-02T06:12:14.761Z,5.82
2023-04-02T06:14:41.099Z,5.32
2023-04-02T06:17:08.988Z,5.40
2023-04-02T06:19:37.400Z,5.90
2023-04-02T06:22:16.494Z,5.45
2023-04-02T06:24:44.531Z,5.32
2023-04-02T06:27:12.888Z,5.55
2023-04-02T06:29:41.247Z,5.68
2023-04-02T06:32:08.693Z,5.90
2023-04-02T06:34:36.571Z,5.45
2023-04-02T06:37:19.545Z,5.97
2023-04-02T06:39:45.999Z,6.30
2023-04-02T06:42:21.037Z,6.35
2023-04-02T06:44:47.607Z,6.05
2023-04-02T06:50:54.793Z,7.03
2023-04-02T06:53:24.037Z,7.07
2023-04-02T06:56:08.900Z,7.00
2023-04-02T06:58:35.406Z,6.85
2023-04-02T07:01:02.011Z,7.80
2023-04-02T07:03:29.718Z,7.55
2023-04-02T07:05:56.555Z,7.68
2023-04-02T07:08:23.103Z,7.47
2023-04-02T07:10:49.384Z,7.78
2023-04-02T07:13:16.764Z,7.90
2023-04-02T07:15:44.857Z,7.60
2023-04-02T07:18:37.487Z,8.07
2023-04-02T07:21:03.769Z,7.35
2023-04-02T07:23:31.387Z,7.45
2023-04-02T07:25:58.338Z,8.00
2023-04-02T07:28:24.908Z,7.63
2023-04-02T07:30:51.723Z,7.30
2023-04-02T07:33:19.632Z,6.95
2023-04-02T07:35:46.277Z,7.63
2023-04-02T07:38:12.489Z,7.95
2023-04-02T07:40:39.008Z,7.28
2023-04-02T07:43:06.023Z,7.30
2023-04-02T07:45:32.268Z,7.72
2023-04-02T07:48:03.809Z,7.25
2023-04-02T07:50:30.523Z,7.60
2023-04-02T07:52:56.888Z,6.82
2023-04-02T07:55:23.105Z,7.47
2023-04-02T07:57:50.948Z,7.60
2023-04-02T08:00:17.879Z,7.55
2023-04-02T08:02:44.417Z,7.97
2023-04-02T08:05:11.043Z,7.97
2023-04-02T08:07:38.898Z,7.75
2023-04-02T08:10:06.446Z,7.95
2023-04-02T08:12:32.670Z,8.65
2023-04-02T08:14:58.883Z,8.05
2023-04-02T08:17:25.124Z,8.32
2023-04-02T08:19:54.963Z,8.13
2023-04-02T08:22:21.692Z,7.93
2023-04-02T08:24:47.938Z,7.70
2023-04-02T08:27:14.946Z,7.95
2023-04-02T08:29:41.147Z,8.63
2023-04-02T08:32:07.470Z,7.82
2023-04-02T08:34:33.674Z,8.02
2023-04-02T08:36:59.883Z,9.18
2023-04-02T08:39:29.224Z,9.98
2023-04-02T08:41:55.876Z,8.52
2023-04-02T08:44:24.846Z,9.15
2023-04-02T08:46:51.921Z,9.05
2023-04-02T08:49:22.862Z,9.73
2023-04-02T08:51:49.610Z,9.10
2023-04-02T08:54:17.358Z,8.45
2023-04-02T08:56:46.946Z,9.43
2023-04-02T08:59:33.558Z,10.43
2023-04-02T09:02:16.282Z,9.82
2023-04-02T09:04:42.681Z,8.95
2023-04-02T09:07:12.668Z,8.57
2023-04-02T09:09:38.924Z,9.57
2023-04-02T09:12:07.229Z,9.88
2023-04-02T09:14:33.503Z,9.27
2023-04-02T09:17:01.788Z,8.45
2023-04-02T09:19:38.313Z,8.35
2023-04-02T09:22:08.909Z,8.55
2023-04-02T09:24:36.557Z,8.27
2023-04-02T09:27:02.905Z,8.60
2023-04-02T09:29:44.069Z,8.65
2023-04-02T09:32:19.763Z,8.15
2023-04-02T09:34:46.170Z,8.18
2023-04-02T09:37:15.478Z,8.50
2023-04-02T09:39:41.775Z,7.80
2023-04-02T09:42:08.611Z,7.40
2023-04-02T09:44:35.030Z,6.75
2023-04-02T09:47:05.301Z,7.47
2023-04-02T09:49:31.522Z,7.53
2023-04-02T09:52:18.104Z,7.10
2023-04-02T09:54:44.437Z,6.95
2023-04-02T09:57:25.050Z,7.40
2023-04-02T10:00:10.317Z,8.00
2023-04-02T10:02:41.324Z,8.18
2023-04-02T10:05:26.571Z,7.40
2023-04-02T10:08:18.300Z,8.40
2023-04-02T10:10:46.803Z,10.77
2023-04-02T10:13:31.835Z,10.48
2023-04-02T10:16:07.108Z,8.18
2023-04-02T10:18:38.443Z,9.57
2023-04-02T10:21:05.529Z,8.65
2023-04-02T10:23:32.087Z,10.40
2023-04-02T10:26:08.254Z,12.15
2023-04-02T10:28:48.541Z,9.40
2023-04-02T10:31:25.245Z,8.95
2023-04-02T10:33:54.413Z,9.23
2023-04-02T10:36:35.879Z,11.55
2023-04-02T10:39:14.394Z,8.63
2023-04-02T10:41:47.836Z,8.40
2023-04-02T10:44:20.903Z,8.70
2023-04-02T10:47:06.025Z,8.55
2023-04-02T10:49:36.041Z,8.15
2023-04-02T10:52:03.658Z,7.75
2023-04-02T10:54:29.850Z,7.43
2023-04-02T10:56:58.709Z,8.35
2023-04-02T10:59:27.696Z,8.38
2023-04-02T11:01:55.696Z,7.90
2023-04-02T11:04:25.015Z,9.02
2023-04-02T11:07:07.235Z,8.25
2023-04-02T11:09:42.051Z,8.60
2023-04-02T11:12:11.853Z,7.40
2023-04-02T11:14:38.145Z,7.70
2023-04-02T11:17:04.411Z,7.15
2023-04-02T11:19:32.188Z,8.25
2023-04-02T11:22:02.002Z,7.53
2023-04-02T11:24:30.097Z,7.10
2023-04-02T11:27:11.512Z,6.95
2023-04-02T11:29:43.196Z,7.82
2023-04-02T11:34:38.311Z,7.40
2023-04-02T11:37:07.821Z,6.50
2023-04-02T11:39:57.119Z,7.47
2023-04-02T11:42:24.763Z,6.45
2023-04-02T11:44:51.557Z,7.07
2023-04-02T11:47:24.335Z,6.82
2023-04-02T11:49:57.564Z,7.22
2023-04-02T11:52:28.892Z,6.50
2023-04-02T11:54:59.451Z,6.45
2023-04-02T11:57:34.774Z,7.03
2023-04-02T12:00:12.881Z,7.78
2023-04-02T12:02:55.681Z,7.35
2023-04-02T12:05:36.370Z,7.25
2023-04-02T12:08:05.198Z,7.22
2023-04-02T12:10:32.703Z,7.40
2023-04-02T12:12:59.067Z,6.65
2023-04-02T12:15:28.624Z,7.10
2023-04-02T12:18:03.359Z,7.13
2023-04-02T12:20:30.478Z,7.25
2023-04-02T12:22:57.489Z,7.20
2023-04-02T12:25:23.681Z,7.60
2023-04-02T12:28:09.233Z,7.18
2023-04-02T12:30:36.020Z,8.82
2023-04-02T12:33:20.857Z,7.85
2023-04-02T12:35:47.980Z,7.53
2023-04-02T12:38:24.738Z,7.18
2023-04-02T12:40:51.842Z,9.50
2023-04-02T12:43:27.293Z,8.88
2023-04-02T12:45:54.840Z,7.68
2023-04-02T12:48:21.461Z,7.57
2023-04-02T12:50:48.402Z,8.43
2023-04-02T12:53:22.340Z,9.13
2023-04-02T12:55:52.104Z,8.02
2023-04-02T12:58:24.951Z,7.28
2023-04-02T13:00:51.289Z,7.35
2023-04-02T13:03:21.626Z,7.05
2023-04-02T13:05:48.005Z,7.40
2023-04-02T13:08:23.277Z,7.60
2023-04-02T13:10:54.199Z,6.68
2023-04-02T13:13:24.194Z,6.40
2023-04-02T13:16:00.434Z,6.75
2023-04-02T13:18:26.687Z,6.95
2023-04-02T13:20:57.266Z,6.55
2023-04-02T13:23:25.327Z,6.73
2023-04-02T13:25:51.828Z,6.57
2023-04-02T13:28:18.561Z,6.82
2023-04-02T13:30:45.499Z,7.00
2023-04-02T13:33:11.976Z,6.20
2023-04-02T13:35:38.283Z,6.03
2023-04-02T13:38:05.696Z,5.95
2023-04-02T13:40:32.966Z,6.65
2023-04-02T13:42:59.502Z,5.82
2023-04-02T13:45:27.466Z,5.40
2023-04-02T13:47:54.219Z,5.97
2023-04-02T13:50:21.984Z,6.50
2023-04-02T13:52:50.512Z,5.88
2023-04-02T13:55:17.855Z,6.25
2023-04-02T13:57:44.065Z,6.30
2023-04-02T14:00:10.730Z,6.20
2023-04-02T14:02:43.196Z,5.80
2023-04-02T14:05:09.622Z,5.22
2023-04-02T14:07:43.734Z,5.50
2023-04-02T14:10:18.208Z,5.60
2023-04-02T14:12:53.663Z,5.25
2023-04-02T14:15:32.087Z,5.43
2023-04-02T14:18:07.238Z,5.07
2023-04-02T14:20:52.521Z,4.97
2023-04-02T14:23:18.830Z,4.80
2023-04-02T14:25:45.192Z,5.72
2023-04-02T14:28:23.439Z,5.20
2023-04-02T14:31:07.506Z,5.20
2023-04-02T14:33:56.229Z,5.18
2023-04-02T14:36:28.739Z,5.53
2023-04-02T14:38:57.575Z,5.15
2023-04-02T14:41:26.765Z,5.28
2023-04-02T14:43:58.999Z,4.93
2023-04-02T14:46:26.618Z,4.82
2023-04-02T14:48:55.877Z,4.60
2023-04-02T14:51:26.239Z,4.80
2023-04-02T14:53:52.597Z,4.63
2023-04-02T14:56:19.854Z,4.90
2023-04-02T14:58:48.473Z,4.55
2023-04-02T15:01:19.060Z,4.85
2023-04-02T15:03:52.739Z,5.07
2023-04-02T15:06:21.262Z,4.88
2023-04-02T15:08:58.545Z,4.82
2023-04-02T15:11:42.285Z,5.13
2023-04-02T15:14:16.441Z,5.32
2023-04-02T15:16:43.348Z,5.28
2023-04-02T15:19:13.997Z,5.65
2023-04-02T15:21:57.186Z,5.60
2023-04-02T15:24:25.906Z,5.22
2023-04-02T15:27:23.891Z,5.60
2023-04-02T15:30:09.440Z,5.35
2023-04-02T15:32:37.437Z,5.30
2023-04-02T15:35:19.425Z,6.18
2023-04-02T15:37:46.687Z,5.38
2023-04-02T15:40:21.650Z,5.43
2023-04-02T15:42:58.045Z,6.13
2023-04-02T15:45:38.748Z,5.53
2023-04-02T15:48:11.761Z,5.95
2023-04-02T15:50:46.698Z,6.13
2023-04-02T15:53:25.313Z,6.10
2023-04-02T15:55:58.002Z,6.18
2023-04-02T15:58:31.431Z,6.18
2023-04-02T16:01:03.681Z,5.65
2023-04-02T16:03:48.340Z,5.82
2023-04-02T16:06:23.457Z,6.15
2023-04-02T16:09:13.170Z,5.85
2023-04-02T16:11:40.232Z,5.85
2023-04-02T16:14:18.454Z,5.88
2023-04-02T16:16:46.622Z,5.95
2023-04-02T16:19:17.115Z,5.82
2023-04-02T16:21:49.000Z,6.10
2023-04-02T16:24:15.207Z,6.05
2023-04-02T16:26:57.304Z,5.78
2023-04-02T16:29:23.463Z,6.13
2023-04-02T16:32:01.913Z,8.52
2023-04-02T16:34:34.296Z,8.07
2023-04-02T16:37:05.811Z,7.15
2023-04-02T16:42:04.437Z,7.35
2023-04-02T16:44:45.684Z,6.80
2023-04-02T16:47:21.399Z,5.47
2023-04-02T16:49:53.679Z,5.63
2023-04-02T16:52:19.882Z,7.68
2023-04-02T16:55:04.829Z,6.30
2023-04-02T16:57:34.249Z,6.40
2023-04-02T17:00:10.394Z,5.20
2023-04-02T17:02:54.564Z,5.57
2023-04-02T17:05:23.927Z,5.60
2023-04-02T17:08:08.828Z,5.90
2023-04-02T17:10:46.284Z,5.07
2023-04-02T17:13:23.904Z,8.30
2023-04-02T17:15:52.429Z,5.00
2023-04-02T17:18:24.571Z,4.75
2023-04-02T17:20:50.904Z,4.95
2023-04-02T17:23:18.093Z,5.10
2023-04-02T17:26:04.586Z,4.45
2023-04-02T17:28:36.647Z,4.90
2023-04-02T17:31:26.316Z,4.75
2023-04-02T17:33:52.762Z,4.57
2023-04-02T17:36:26.020Z,4.90
2023-04-02T17:39:01.156Z,5.20
2023-04-02T17:41:36.688Z,4.90
2023-04-02T17:44:26.818Z,4.55
2023-04-02T17:46:59.183Z,4.47
2023-04-02T17:49:34.952Z,5.13
2023-04-02T17:52:21.439Z,4.35
2023-04-02T17:54:55.420Z,4.22
2023-04-02T17:57:30.384Z,4.40
2023-04-02T18:00:11.789Z,4.22
2023-04-02T18:02:47.186Z,4.10
2023-04-02T18:05:16.434Z,3.53
2023-04-02T18:07:48.711Z,3.60
2023-04-02T18:10:17.775Z,4.00
2023-04-02T18:12:50.061Z,4.28
2023-04-02T18:15:39.117Z,3.75
2023-04-02T18:18:11.161Z,3.60
2023-04-02T18:20:43.094Z,3.45
2023-04-02T18:23:09.356Z,4.20
2023-04-02T18:25:55.569Z,4.22
2023-04-02T18:28:29.260Z,4.43
2023-04-02T18:30:55.635Z,3.78
2023-04-02T18:33:29.618Z,4.18
2023-04-02T18:36:06.376Z,4.07
2023-04-02T18:38:51.613Z,4.00
2023-04-02T18:41:32.101Z,3.72
2023-04-02T18:44:17.247Z,3.72
2023-04-02T18:47:01.215Z,4.05
2023-04-02T18:49:30.761Z,3.50
2023-04-02T18:52:04.389Z,4.00
2023-04-02T18:54:42.988Z,3.70
2023-04-02T18:57:11.227Z,4.18
2023-04-02T18:59:46.741Z,4.00
2023-04-02T19:02:31.781Z,4.30
2023-04-02T19:05:01.010Z,3.78
2023-04-02T19:07:28.559Z,4.35
2023-04-02T19:09:55.990Z,4.15
2023-04-02T19:12:23.410Z,4.35
2023-04-02T19:14:51.134Z,4.13
2023-04-02T19:17:35.918Z,4.22
2023-04-02T19:20:14.642Z,4.18
2023-04-02T19:22:59.147Z,4.43
2023-04-02T19:25:32.715Z,4.55
2023-04-02T19:28:05.883Z,4.53
2023-04-02T19:30:38.248Z,4.60
2023-04-02T19:33:04.523Z,5.03
2023-04-02T19:35:35.355Z,4.88
2023-04-02T19:38:21.529Z,4.53
2023-04-02T19:40:51.461Z,4.70
2023-04-02T19:43:17.794Z,5.03
2023-04-02T19:45:45.302Z,4.60
2023-04-02T19:48:14.006Z,4.55
2023-04-02T19:50:40.646Z,4.40
2023-04-02T19:53:06.881Z,4.10
2023-04-02T19:55:33.202Z,4.15
2023-04-02T19:58:12.681Z,4.45
2023-04-02T20:00:45.381Z,5.70
2023-04-02T20:03:11.601Z,9.73
2023-04-02T20:05:38.257Z,5.75
2023-04-02T20:08:04.723Z,5.88
2023-04-02T20:10:31.243Z,6.50
2023-04-02T20:12:57.471Z,6.00
2023-04-02T20:15:24.078Z,4.40
2023-04-02T20:17:50.379Z,6.25
2023-04-02T20:20:16.901Z,4.63
2023-04-02T20:22:43.158Z,6.32
2023-04-02T20:25:09.493Z,5.18
2023-04-02T20:27:35.975Z,5.90
2023-04-02T20:30:02.579Z,5.80
2023-04-02T20:32:28.903Z,5.47
2023-04-02T20:34:56.068Z,4.35
2023-04-02T20:37:22.596Z,4.32
2023-04-02T20:39:48.983Z,5.60
2023-04-02T20:42:15.466Z,4.20
2023-04-02T20:44:41.916Z,4.03
2023-04-02T20:47:08.705Z,3.67
2023-04-02T20:49:34.967Z,3.20
2023-04-02T20:52:01.201Z,3.08
2023-04-02T20:54:27.433Z,3.00
2023-04-02T20:56:53.648Z,3.08
2023-04-02T20:59:19.891Z,3.03
2023-04-02T21:01:46.250Z,2.83
2023-04-02T21:04:14.023Z,2.45
2023-04-02T21:06:40.801Z,2.55
2023-04-02T21:09:08.689Z,2.15
2023-04-02T21:11:35.798Z,2.67
2023-04-02T21:14:02.041Z,2.38
2023-04-02T21:16:29.570Z,2.38
2023-04-02T21:18:58.080Z,2.83
2023-04-02T21:21:24.891Z,1.98
2023-04-02T21:23:55.381Z,2.22
2023-04-02T21:26:22.004Z,2.20
2023-04-02T21:28:48.321Z,2.40
2023-04-02T21:31:16.400Z,2.63
2023-04-02T21:33:44.552Z,2.40
2023-04-02T21:36:11.885Z,2.55
2023-04-02T21:38:41.832Z,2.40
2023-04-02T21:41:11.131Z,2.97
2023-04-02T21:43:37.680Z,2.40
2023-04-02T21:46:04.769Z,2.30
2023-04-02T21:48:31.674Z,2.35
2023-04-02T21:51:13.425Z,2.60
2023-04-02T21:53:40.067Z,2.40
2023-04-02T21:56:07.896Z,2.20
2023-04-02T21:58:34.639Z,3.92
2023-04-02T22:01:01.162Z,12.98
2023-04-02T22:03:31.583Z,3.00
2023-04-02T22:06:06.511Z,2.17
2023-04-02T22:08:33.602Z,2.33
2023-04-02T22:11:07.170Z,2.63
2023-04-02T22:13:33.556Z,2.40
2023-04-02T22:16:00.949Z,2.20
2023-04-02T22:18:27.161Z,2.30
2023-04-02T22:20:54.322Z,2.70
2023-04-02T22:23:21.267Z,2.30
2023-04-02T22:25:47.639Z,2.30
2023-04-02T22:28:13.830Z,2.22
2023-04-02T22:30:40.504Z,2.40
2023-04-02T22:33:06.888Z,2.35
2023-04-02T22:35:33.144Z,2.60
2023-04-02T22:37:59.369Z,2.50
2023-04-02T22:40:25.847Z,2.58
2023-04-02T22:42:52.215Z,3.03
2023-04-02T22:45:21.021Z,2.70
2023-04-02T22:47:48.533Z,2.83
2023-04-02T22:50:15.393Z,2.40
2023-04-02T22:52:41.705Z,2.40
2023-04-02T22:55:08.624Z,2.60
2023-04-02T22:57:34.902Z,2.50
2023-04-02T23:00:01.324Z,2.40
2023-04-02T23:02:27.681Z,2.58
2023-04-02T23:04:54.002Z,2.40
2023-04-02T23:07:20.304Z,3.28
2023-04-02T23:09:46.595Z,2.83
2023-04-02T23:12:12.802Z,2.95
2023-04-02T23:14:38.999Z,3.38
2023-04-02T23:17:05.246Z,3.88
2023-04-02T23:19:31.457Z,4.13
2023-04-02T23:21:57.680Z,4.45
2023-04-02T23:24:23.867Z,3.60
2023-04-02T23:26:50.141Z,3.88
2023-04-02T23:29:16.350Z,4.32
2023-04-02T23:31:42.634Z,3.97
2023-04-02T23:34:09.685Z,4.20
2023-04-02T23:36:35.909Z,4.47
2023-04-02T23:39:04.409Z,3.53
2023-04-02T23:41:30.935Z,3.95
2023-04-02T23:43:57.354Z,4.20
2023-04-02T23:46:24.420Z,4.25
2023-04-02T23:48:51.140Z,3.90
2023-04-02T23:51:17.693Z,4.40
2023-04-02T23:53:43.919Z,4.63
2023-04-02T23:56:10.505Z,4.25
2023-04-02T23:58:36.707Z,4.50
